Time,TemperatureF,DewpointF,PressureIn,WindDirection,WindDirectionDegrees,WindSpeedMPH,WindSpeedGustMPH,Humidity,HourlyPrecipIn,Conditions,Clouds,dailyrainin,SolarRadiationWatts/m^2,SoftwareType,DateUTC
2013-02-16 00:01:00,54.0,9.0,-100.00,SW,233,4.0,7.0,16,0.00,,,-99.99,0.000000,,2013-02-16 08:01:00,
2013-02-16 00:52:00,53.0,9.0,-100.00,NW,319,3.0,7.0,17,0.00,,,0.00,0.000000,,2013-02-16 08:52:00,
2013-02-16 01:01:00,53.0,9.0,-100.00,NW,319,3.0,7.0,17,0.00,,,0.00,0.000000,,2013-02-16 09:01:00,
2013-02-16 01:11:00,53.0,9.0,-100.00,NW,319,3.0,7.0,17,0.00,,,0.00,0.000000,,2013-02-16 09:11:00,
2013-02-16 01:21:00,53.0,9.0,-100.00,NW,319,3.0,7.0,17,0.00,,,0.00,0.000000,,2013-02-16 09:21:00,
2013-02-16 01:52:00,52.0,9.0,-100.00,NW,322,6.0,9.0,17,0.00,,,0.00,0.000000,,2013-02-16 09:52:00,
2013-02-16 02:01:00,52.0,9.0,-100.00,NW,322,6.0,9.0,17,0.00,,,0.00,0.000000,,2013-02-16 10:01:00,
2013-02-16 02:52:00,53.0,8.0,-100.00,WNW,293,8.0,11.0,16,0.00,,,0.00,0.000000,,2013-02-16 10:52:00,
2013-02-16 03:02:00,53.0,8.0,-100.00,WNW,293,8.0,11.0,16,0.00,,,0.00,0.000000,,2013-02-16 11:02:00,
2013-02-16 03:52:00,53.0,8.0,-100.00,NW,318,6.0,12.0,16,0.00,,,0.00,0.000000,,2013-02-16 11:52:00,
2013-02-16 04:01:00,53.0,8.0,-100.00,NW,318,6.0,12.0,16,0.00,,,0.00,0.000000,,2013-02-16 12:01:00,
2013-02-16 04:52:00,54.0,7.0,-100.00,NW,310,6.0,10.0,15,0.00,,,0.00,0.000000,,2013-02-16 12:52:00,
2013-02-16 05:01:00,54.0,7.0,-100.00,NW,310,6.0,10.0,15,0.00,,,0.00,0.000000,,2013-02-16 13:01:00,
2013-02-16 06:52:00,50.0,7.0,-100.00,NW,316,4.0,6.0,17,-99.99,,,-99.99,0.000000,,2013-02-16 14:52:00,
2013-02-16 07:01:00,50.0,7.0,-100.00,NW,316,4.0,6.0,17,-99.99,,,-99.99,0.000000,,2013-02-16 15:01:00,
2013-02-16 07:52:00,51.0,5.0,-100.00,West,271,3.0,9.0,15,0.00,,,0.00,28.000000,,2013-02-16 15:52:00,
2013-02-16 08:01:00,51.0,5.0,-100.00,West,271,3.0,9.0,15,0.00,,,0.00,28.000000,,2013-02-16 16:01:00,
2013-02-16 08:21:00,51.0,5.0,-100.00,West,271,3.0,9.0,15,0.00,,,0.00,28.000000,,2013-02-16 16:21:00,
2013-02-16 08:52:00,58.0,6.0,-100.00,SSE,149,0.0,5.0,12,0.00,,,0.00,192.000000,,2013-02-16 16:52:00,
2013-02-16 09:01:00,58.0,6.0,-100.00,SSE,149,0.0,5.0,12,0.00,,,0.00,192.000000,,2013-02-16 17:01:00,
2013-02-16 09:52:00,58.0,6.0,-100.00,SSW,195,3.0,9.0,12,0.00,,,0.00,427.000000,,2013-02-16 17:52:00,
2013-02-16 10:02:00,58.0,6.0,-100.00,SSW,195,3.0,9.0,12,0.00,,,0.00,427.000000,,2013-02-16 18:02:00,
2013-02-16 10:21:00,58.0,6.0,-100.00,SSW,195,3.0,9.0,12,0.00,,,0.00,427.000000,,2013-02-16 18:21:00,
2013-02-16 10:52:00,62.0,7.0,-100.00,SE,144,0.0,9.0,11,0.00,,,0.00,631.000000,,2013-02-16 18:52:00,
2013-02-16 11:02:00,62.0,7.0,-100.00,SE,144,0.0,9.0,11,0.00,,,0.00,631.000000,,2013-02-16 19:02:00,
2013-02-16 11:52:00,65.0,7.0,-100.00,East,96,0.0,5.0,10,0.00,,,0.00,660.000000,,2013-02-16 19:52:00,
2013-02-16 12:01:00,65.0,7.0,-100.00,East,96,0.0,5.0,10,0.00,,,0.00,660.000000,,2013-02-16 20:01:00,
2013-02-16 12:52:00,65.0,5.0,-100.00,ESE,113,0.0,5.0,9,0.00,,,0.00,677.000000,,2013-02-16 20:52:00,
2013-02-16 13:02:00,65.0,5.0,-100.00,ESE,113,0.0,5.0,9,0.00,,,0.00,677.000000,,2013-02-16 21:02:00,
2013-02-16 13:52:00,66.0,3.0,-100.00,ENE,66,2.0,6.0,8,0.00,,,0.00,918.000000,,2013-02-16 21:52:00,
2013-02-16 14:01:00,66.0,3.0,-100.00,ENE,66,2.0,6.0,8,0.00,,,0.00,918.000000,,2013-02-16 22:01:00,
2013-02-16 14:52:00,66.0,3.0,-100.00,East,88,1.0,8.0,8,0.00,,,0.00,776.000000,,2013-02-16 22:52:00,
2013-02-16 15:02:00,66.0,3.0,-100.00,East,88,1.0,8.0,8,0.00,,,0.00,776.000000,,2013-02-16 23:02:00,
2013-02-16 15:52:00,63.0,3.0,-100.00,SSE,152,1.0,8.0,9,0.00,,,0.00,597.000000,,2013-02-16 23:52:00,
2013-02-16 16:02:00,63.0,3.0,-100.00,SSE,152,1.0,8.0,9,0.00,,,0.00,597.000000,,2013-02-17 00:02:00,
2013-02-16 16:11:00,63.0,3.0,-100.00,SSE,152,1.0,8.0,9,0.00,,,0.00,597.000000,,2013-02-17 00:11:00,
2013-02-16 16:21:00,63.0,3.0,-100.00,SSE,152,1.0,8.0,9,0.00,,,0.00,597.000000,,2013-02-17 00:21:00,
2013-02-16 16:52:00,60.0,1.0,-100.00,South,169,5.0,9.0,9,0.00,,,0.00,361.000000,,2013-02-17 00:52:00,
2013-02-16 17:01:00,60.0,1.0,-100.00,South,169,5.0,9.0,9,0.00,,,0.00,361.000000,,2013-02-17 01:01:00,
2013-02-16 17:11:00,60.0,1.0,-100.00,South,169,5.0,9.0,9,0.00,,,0.00,361.000000,,2013-02-17 01:11:00,
2013-02-16 17:21:00,60.0,1.0,-100.00,South,169,5.0,9.0,9,0.00,,,0.00,361.000000,,2013-02-17 01:21:00,
2013-02-16 17:52:00,57.0,3.0,-100.00,SSW,205,4.0,10.0,11,0.00,,,0.00,74.000000,,2013-02-17 01:52:00,
2013-02-16 18:01:00,57.0,3.0,-100.00,SSW,205,4.0,10.0,11,0.00,,,0.00,74.000000,,2013-02-17 02:01:00,
2013-02-16 18:11:00,57.0,3.0,-100.00,SSW,205,4.0,10.0,11,0.00,,,0.00,74.000000,,2013-02-17 02:11:00,
2013-02-16 18:21:00,57.0,3.0,-100.00,SSW,205,4.0,10.0,11,0.00,,,0.00,74.000000,,2013-02-17 02:21:00,
2013-02-16 18:52:00,54.0,4.0,-100.00,South,190,8.0,11.0,13,0.00,,,0.00,2.000000,,2013-02-17 02:52:00,
2013-02-16 19:01:00,54.0,4.0,-100.00,South,190,8.0,11.0,13,0.00,,,0.00,2.000000,,2013-02-17 03:01:00,
2013-02-16 19:11:00,54.0,4.0,-100.00,South,190,8.0,11.0,13,0.00,,,0.00,2.000000,,2013-02-17 03:11:00,
2013-02-16 19:21:00,54.0,4.0,-100.00,South,190,8.0,11.0,13,0.00,,,0.00,2.000000,,2013-02-17 03:21:00,
2013-02-16 19:52:00,57.0,5.0,-100.00,WSW,242,4.0,13.0,12,0.00,,,0.00,0.000000,,2013-02-17 03:52:00,
2013-02-16 20:01:00,57.0,5.0,-100.00,WSW,242,4.0,13.0,12,0.00,,,0.00,0.000000,,2013-02-17 04:01:00,
2013-02-16 20:11:00,57.0,5.0,-100.00,WSW,242,4.0,13.0,12,0.00,,,0.00,0.000000,,2013-02-17 04:11:00,
2013-02-16 20:21:00,57.0,5.0,-100.00,WSW,242,4.0,13.0,12,0.00,,,0.00,0.000000,,2013-02-17 04:21:00,
2013-02-16 20:52:00,55.0,3.0,-100.00,SW,230,5.0,12.0,12,0.00,,,0.00,0.000000,,2013-02-17 04:52:00,
2013-02-16 21:01:00,55.0,3.0,-100.00,SW,230,5.0,12.0,12,0.00,,,0.00,0.000000,,2013-02-17 05:01:00,
2013-02-16 21:11:00,55.0,3.0,-100.00,SW,230,5.0,12.0,12,0.00,,,0.00,0.000000,,2013-02-17 05:11:00,
2013-02-16 21:22:00,55.0,3.0,-100.00,SW,230,5.0,12.0,12,0.00,,,0.00,0.000000,,2013-02-17 05:22:00,
2013-02-16 21:52:00,56.0,7.0,-100.00,West,263,6.0,12.0,14,0.00,,,0.00,0.000000,,2013-02-17 05:52:00,
2013-02-16 22:02:00,56.0,7.0,-100.00,West,263,6.0,12.0,14,0.00,,,0.00,0.000000,,2013-02-17 06:02:00,
2013-02-16 22:11:00,56.0,7.0,-100.00,West,263,6.0,12.0,14,0.00,,,0.00,0.000000,,2013-02-17 06:11:00,
2013-02-16 22:21:00,56.0,7.0,-100.00,West,263,6.0,12.0,14,0.00,,,0.00,0.000000,,2013-02-17 06:21:00,
2013-02-16 22:52:00,58.0,6.0,-100.00,West,265,7.0,13.0,12,0.00,,,0.00,0.000000,,2013-02-17 06:52:00,
2013-02-16 23:01:00,58.0,6.0,-100.00,West,265,7.0,13.0,12,0.00,,,0.00,0.000000,,2013-02-17 07:01:00,
2013-02-16 23:52:00,56.0,2.0,-100.00,West,269,6.0,13.0,11,0.00,,,0.00,0.000000,,2013-02-17 07:52:00,